Time;durP1;ratioP1;P1;durP2;ratioP2;P2;SDS_P1;SDS_P2;PMS_P1;PMS_P2;Temp;Humidity;BMP_temperature;BMP_pressure;BME280_temperature;BME280_humidity;BME280_pressure;Samples;Min_cycle;Max_cycle;Signal;HPM_P1;HPM_P2
2021/09/07 00:01:22;;;;;;;35.38;19.75;;;;;;;13.07;100.00;101445.69;5075867;28;20165;-85
2021/09/07 00:03:48;;;;;;;32.08;18.73;;;;;;;13.04;100.00;101455.31;5094142;28;20039;-85
2021/09/07 00:06:14;;;;;;;32.65;18.60;;;;;;;13.04;100.00;101456.16;5075948;28;20046;-84
2021/09/07 00:08:39;;;;;;;29.92;18.58;;;;;;;13.00;100.00;101454.50;5075934;28;20034;-84
2021/09/07 00:11:05;;;;;;;30.30;17.65;;;;;;;13.00;100.00;101453.63;5075880;28;20023;-84
2021/09/07 00:13:30;;;;;;;29.70;18.85;;;;;;;13.04;100.00;101455.31;5076141;28;20501;-85
2021/09/07 00:15:55;;;;;;;33.40;19.65;;;;;;;13.13;100.00;101455.19;5075723;28;20020;-84
2021/09/07 00:18:20;;;;;;;29.35;17.92;;;;;;;13.12;100.00;101446.50;5075869;28;20085;-84
2021/09/07 00:20:46;;;;;;;32.30;18.77;;;;;;;13.11;100.00;101449.13;5093900;28;20020;-84
2021/09/07 00:23:11;;;;;;;28.55;18.63;;;;;;;13.05;100.00;101450.09;5075650;28;20024;-85
2021/09/07 00:25:36;;;;;;;31.38;19.23;;;;;;;12.99;100.00;101449.28;5075670;28;20024;-84
2021/09/07 00:28:02;;;;;;;33.50;19.10;;;;;;;13.02;100.00;101452.75;5093619;28;20024;-84
2021/09/07 00:30:27;;;;;;;32.40;18.77;;;;;;;13.06;100.00;101448.34;5075869;28;20061;-84
2021/09/07 00:32:53;;;;;;;35.17;20.20;;;;;;;13.09;100.00;101443.94;5093634;28;20104;-85
2021/09/07 00:35:18;;;;;;;31.60;19.10;;;;;;;13.12;100.00;101443.06;5093537;28;20329;-84
2021/09/07 00:37:43;;;;;;;29.63;19.02;;;;;;;13.10;100.00;101437.84;5093561;28;20023;-84
2021/09/07 00:40:10;;;;;;;33.67;19.75;;;;;;;13.07;100.00;101448.31;5093740;28;20103;-84
2021/09/07 00:42:37;;;;;;;29.50;18.25;;;;;;;13.09;100.00;101437.88;5075335;28;20028;-85
2021/09/07 00:45:04;;;;;;;28.65;19.98;;;;;;;13.12;100.00;101438.69;5075534;28;20081;-85
2021/09/07 00:47:29;;;;;;;33.92;19.40;;;;;;;13.14;100.00;101436.91;5075350;28;20567;-84
2021/09/07 00:49:54;;;;;;;33.33;20.40;;;;;;;13.11;100.00;101442.16;5075535;28;20059;-85
2021/09/07 00:52:20;;;;;;;36.17;20.98;;;;;;;13.14;100.00;101434.31;5075897;28;20028;-85
2021/09/07 00:54:46;;;;;;;33.85;20.17;;;;;;;13.19;100.00;101438.59;5075175;28;20028;-84
2021/09/07 00:57:12;;;;;;;29.23;20.08;;;;;;;13.18;100.00;101431.66;5075510;28;20043;-85
2021/09/07 00:59:38;;;;;;;32.67;21.33;;;;;;;13.21;100.00;101421.19;5075523;28;20024;-85
2021/09/07 01:02:04;;;;;;;32.22;19.92;;;;;;;13.22;100.00;101425.53;5092190;28;20020;-85
2021/09/07 01:04:32;;;;;;;31.42;20.70;;;;;;;13.18;100.00;101424.72;5075297;28;20052;-85
2021/09/07 01:06:58;;;;;;;33.55;20.33;;;;;;;13.25;100.00;101417.69;5075428;28;20380;-85
2021/09/07 01:09:23;;;;;;;37.08;21.35;;;;;;;13.23;100.00;101416.81;5093180;28;20032;-85
2021/09/07 01:11:49;;;;;;;30.63;20.38;;;;;;;13.27;100.00;101421.13;5093259;28;20024;-85
2021/09/07 01:14:17;;;;;;;35.15;20.63;;;;;;;13.14;100.00;101423.03;5136186;22;20040;-81
2021/09/07 01:16:43;;;;;;;34.25;21.35;;;;;;;13.06;100.00;101425.75;5088518;28;20373;-81
2021/09/07 01:19:08;;;;;;;31.85;21.23;;;;;;;13.10;100.00;101442.19;5086942;28;20031;-81
2021/09/07 01:21:33;;;;;;;36.08;21.30;;;;;;;13.07;100.00;101437.88;5104578;28;20016;-81
2021/09/07 01:23:58;;;;;;;36.17;22.63;;;;;;;13.11;100.00;101431.75;5086631;28;20031;-81
2021/09/07 01:26:24;;;;;;;33.83;21.45;;;;;;;13.05;100.00;101430.97;5104775;28;20024;-81
2021/09/07 01:28:49;;;;;;;35.85;21.92;;;;;;;13.07;100.00;101424.00;5086292;28;20093;-81
2021/09/07 01:31:15;;;;;;;34.78;21.98;;;;;;;13.03;100.00;101423.19;5086572;28;20051;-81
2021/09/07 01:33:41;;;;;;;32.65;20.73;;;;;;;13.06;100.00;101427.50;5105435;28;20395;-81
2021/09/07 01:36:07;;;;;;;39.20;22.60;;;;;;;13.02;100.00;101426.69;5106264;28;20061;-81
2021/09/07 01:38:34;;;;;;;38.40;22.42;;;;;;;13.07;100.00;101424.88;5087455;28;20031;-81
2021/09/07 01:41:00;;;;;;;32.88;21.05;;;;;;;13.05;100.00;101421.44;5087498;28;20429;-81
2021/09/07 01:43:26;;;;;;;34.63;22.45;;;;;;;13.05;100.00;101421.44;5088856;28;20039;-81
2021/09/07 01:45:53;;;;;;;34.28;23.23;;;;;;;13.06;100.00;101423.16;5088075;28;20391;-81
2021/09/07 01:48:19;;;;;;;35.40;22.85;;;;;;;13.04;100.00;101424.06;5087883;28;20050;-81
2021/09/07 01:50:46;;;;;;;36.08;22.48;;;;;;;12.94;100.00;101425.09;5087584;28;20020;-81
2021/09/07 01:53:11;;;;;;;36.90;22.73;;;;;;;12.94;100.00;101428.53;5086476;28;20108;-81
2021/09/07 01:55:36;;;;;;;39.38;22.10;;;;;;;12.91;100.00;101433.78;5087477;28;20024;-81
2021/09/07 01:58:02;;;;;;;34.67;22.02;;;;;;;12.84;100.00;101426.97;5087975;28;20063;-81
2021/09/07 02:00:27;;;;;;;39.47;23.08;;;;;;;12.79;100.00;101439.16;5106107;28;20024;-81
2021/09/07 02:02:53;;;;;;;35.95;23.17;;;;;;;12.73;100.00;101434.03;5087056;28;20035;-81
2021/09/07 02:05:18;;;;;;;38.03;22.05;;;;;;;12.73;100.00;101434.91;5086982;28;20032;-81
2021/09/07 02:07:43;;;;;;;34.85;21.13;;;;;;;12.77;100.00;101431.34;5090339;28;20024;-81
2021/09/07 02:10:10;;;;;;;35.97;21.38;;;;;;;12.75;100.00;101429.69;5090372;28;20091;-81
2021/09/07 02:12:35;;;;;;;35.72;22.88;;;;;;;12.72;100.00;101430.56;5108355;28;20027;-81
2021/09/07 02:15:01;;;;;;;36.45;23.35;;;;;;;12.69;100.00;101432.38;5091618;28;20056;-81
2021/09/07 02:17:26;;;;;;;38.47;25.05;;;;;;;12.67;100.00;101443.63;5109180;28;20035;-81
2021/09/07 02:19:53;;;;;;;36.90;23.48;;;;;;;12.66;100.00;101439.31;5090707;28;20024;-81
2021/09/07 02:22:19;;;;;;;36.45;23.95;;;;;;;12.66;100.00;101433.25;5108875;28;20388;-81
2021/09/07 02:24:44;;;;;;;41.97;24.02;;;;;;;12.64;100.00;101435.88;5111137;28;20024;-81
2021/09/07 02:27:09;;;;;;;39.42;24.55;;;;;;;12.55;100.00;101438.59;5092381;28;20026;-81
2021/09/07 02:29:35;;;;;;;36.58;24.30;;;;;;;12.56;100.00;101437.72;5094144;28;20548;-81
2021/09/07 02:32:00;;;;;;;37.92;25.67;;;;;;;12.56;100.00;101442.94;5093387;28;20027;-81
2021/09/07 02:34:25;;;;;;;38.58;23.92;;;;;;;12.39;100.00;101440.50;5092646;28;20027;-81
2021/09/07 02:36:51;;;;;;;39.42;24.88;;;;;;;12.42;100.00;101437.88;5111694;28;20028;-81
2021/09/07 02:39:16;;;;;;;42.38;24.00;;;;;;;12.37;100.00;101446.59;5112595;28;20476;-81
2021/09/07 02:41:41;;;;;;;35.67;24.38;;;;;;;12.33;100.00;101432.78;5112238;28;20099;-81
2021/09/07 02:44:07;;;;;;;41.72;24.75;;;;;;;12.28;100.00;101436.31;5093207;28;20020;-81
2021/09/07 02:46:32;;;;;;;41.38;24.27;;;;;;;12.23;100.00;101438.97;5093659;28;20075;-81
2021/09/07 02:48:57;;;;;;;35.58;22.60;;;;;;;12.19;100.00;101432.94;5094040;28;20046;-81
2021/09/07 02:51:22;;;;;;;38.08;23.88;;;;;;;12.14;100.00;101426.06;5107846;28;20490;-81
2021/09/07 02:53:48;;;;;;;37.58;24.33;;;;;;;12.11;100.00;101426.94;5089059;28;20028;-81
2021/09/07 02:56:14;;;;;;;35.88;24.02;;;;;;;12.07;100.00;101426.97;5091632;28;20024;-81
2021/09/07 02:58:39;;;;;;;39.85;23.80;;;;;;;12.13;100.00;101420.00;5110249;28;20020;-81
2021/09/07 03:01:04;;;;;;;36.17;23.50;;;;;;;12.10;100.00;101421.75;5109500;28;20020;-81
2021/09/07 03:03:30;;;;;;;37.45;23.90;;;;;;;12.13;100.00;101417.41;5089768;28;20111;-81
2021/09/07 03:05:57;;;;;;;34.22;23.55;;;;;;;12.11;100.00;101416.56;5090972;28;20106;-81
2021/09/07 03:08:22;;;;;;;36.00;23.25;;;;;;;11.93;100.00;101420.19;5108991;28;20099;-81
2021/09/07 03:10:48;;;;;;;38.05;23.55;;;;;;;11.93;100.00;101416.75;5091184;28;20399;-81
2021/09/07 03:13:13;;;;;;;35.55;24.13;;;;;;;11.96;100.00;101416.72;5110233;28;20031;-81
2021/09/07 03:15:40;;;;;;;36.45;22.63;;;;;;;11.97;100.00;101413.22;5090751;28;20114;-81
2021/09/07 03:18:06;;;;;;;38.60;23.27;;;;;;;11.89;100.00;101417.66;5088924;28;20439;-81
2021/09/07 03:20:31;;;;;;;36.80;22.35;;;;;;;11.87;100.00;101419.41;5090255;28;20042;-81
2021/09/07 03:22:56;;;;;;;36.35;24.45;;;;;;;11.97;100.00;101423.63;5090034;28;20032;-81
2021/09/07 03:25:21;;;;;;;38.42;23.88;;;;;;;12.02;100.00;101418.41;5089942;28;20042;-81
2021/09/07 03:27:47;;;;;;;36.63;24.23;;;;;;;12.01;100.00;101417.53;5090601;28;20110;-81
2021/09/07 03:30:12;;;;;;;40.85;23.58;;;;;;;12.01;100.00;101419.25;5108186;28;20020;-81
2021/09/07 03:32:39;;;;;;;36.17;23.77;;;;;;;12.02;100.00;101416.66;5095954;28;20107;-81
2021/09/07 03:35:05;;;;;;;35.30;22.85;;;;;;;11.90;100.00;101412.44;5115532;28;20038;-81
2021/09/07 03:37:30;;;;;;;37.30;25.17;;;;;;;11.95;100.00;101413.25;5096052;28;20024;-81
2021/09/07 03:39:55;;;;;;;39.92;24.30;;;;;;;11.83;100.00;101418.53;5095385;28;20535;-81
2021/09/07 03:42:21;;;;;;;34.20;23.13;;;;;;;11.69;100.00;101412.59;5094981;28;20020;-81
2021/09/07 03:44:46;;;;;;;32.92;21.90;;;;;;;11.63;100.00;101413.50;5094270;28;20019;-81
2021/09/07 03:47:11;;;;;;;33.05;22.35;;;;;;;11.64;100.00;101414.41;5112444;28;20103;-81
2021/09/07 03:49:37;;;;;;;33.78;22.58;;;;;;;11.69;100.00;101416.06;5092975;28;20024;-81
2021/09/07 03:52:02;;;;;;;39.58;24.52;;;;;;;11.67;100.00;101415.22;5092708;28;20087;-81
2021/09/07 03:54:27;;;;;;;33.78;22.40;;;;;;;11.57;100.00;101418.75;5090096;28;20077;-81
2021/09/07 03:56:53;;;;;;;37.47;23.35;;;;;;;11.56;100.00;101423.97;5109739;28;20021;-81
2021/09/07 03:59:18;;;;;;;35.03;22.08;;;;;;;11.54;100.00;101423.97;5091396;28;20036;-81
2021/09/07 04:01:43;;;;;;;29.45;20.92;;;;;;;11.51;100.00;101424.00;5090634;28;20411;-81
2021/09/07 04:04:10;;;;;;;35.88;22.23;;;;;;;11.40;100.00;101423.25;5107935;28;20024;-81
2021/09/07 04:06:36;;;;;;;31.30;20.60;;;;;;;11.37;100.00;101423.28;5089819;28;20016;-81
2021/09/07 04:09:02;;;;;;;28.65;20.20;;;;;;;11.43;100.00;101436.22;5089916;28;20115;-81
2021/09/07 04:11:27;;;;;;;34.03;21.45;;;;;;;11.33;100.00;101437.13;5089119;28;20053;-81
2021/09/07 04:13:52;;;;;;;35.20;21.65;;;;;;;11.25;100.00;101440.66;5088711;28;20032;-81
2021/09/07 04:16:17;;;;;;;36.60;22.67;;;;;;;11.19;100.00;101445.03;5089696;28;20028;-81
2021/09/07 04:18:43;;;;;;;38.47;21.75;;;;;;;11.18;100.00;101446.78;5109110;28;20019;-81
2021/09/07 04:21:11;;;;;;;33.20;22.10;;;;;;;11.21;100.00;101449.34;5090446;28;20039;-81
2021/09/07 04:23:36;;;;;;;36.58;22.55;;;;;;;11.32;100.00;101454.47;5089045;28;20032;-81
2021/09/07 04:26:02;;;;;;;35.05;20.60;;;;;;;11.14;100.00;101460.63;5108807;28;20380;-81
2021/09/07 04:28:27;;;;;;;34.47;21.95;;;;;;;11.05;100.00;101468.47;5106989;28;20035;-81
2021/09/07 04:30:52;;;;;;;32.80;20.77;;;;;;;11.05;100.00;101464.16;5084583;28;20471;-81
2021/09/07 04:33:17;;;;;;;31.10;21.35;;;;;;;11.04;100.00;101467.63;5095825;28;20031;-81
2021/09/07 04:35:43;;;;;;;35.03;22.42;;;;;;;11.13;100.00;101466.69;5077411;28;20024;-81
2021/09/07 04:38:08;;;;;;;31.80;20.30;;;;;;;11.22;100.00;101464.06;5096470;28;20499;-81
2021/09/07 04:40:33;;;;;;;31.08;20.23;;;;;;;11.22;100.00;101456.25;5096289;28;20050;-81
2021/09/07 04:42:59;;;;;;;30.30;20.75;;;;;;;11.23;100.00;101459.72;5077153;28;20383;-81
2021/09/07 04:45:24;;;;;;;35.28;22.33;;;;;;;11.18;100.00;101458.91;5095552;28;20051;-81
2021/09/07 04:47:49;;;;;;;34.78;21.55;;;;;;;11.10;100.00;101455.47;5077694;28;20020;-81
2021/09/07 04:50:14;;;;;;;31.05;20.90;;;;;;;11.04;100.00;101461.56;5077837;28;20540;-81
2021/09/07 04:52:40;;;;;;;33.33;22.42;;;;;;;11.10;100.00;101465.88;5078132;28;20020;-81
2021/09/07 04:55:05;;;;;;;33.28;22.25;;;;;;;11.19;100.00;101477.06;5078282;28;20028;-82
2021/09/07 04:57:31;;;;;;;30.10;21.33;;;;;;;11.16;100.00;101477.06;5077882;28;20020;-82
2021/09/07 04:59:56;;;;;;;32.58;22.20;;;;;;;11.22;100.00;101477.03;5077906;28;20077;-82
2021/09/07 05:02:22;;;;;;;31.13;22.95;;;;;;;11.31;100.00;101472.66;5078718;28;20032;-81
2021/09/07 05:04:47;;;;;;;35.80;23.77;;;;;;;11.39;100.00;101473.44;5096833;28;20515;-81
2021/09/07 05:07:12;;;;;;;37.90;23.73;;;;;;;11.46;100.00;101473.41;5096189;28;20383;-81
2021/09/07 05:09:38;;;;;;;60.72;26.02;;;;;;;11.50;100.00;101472.50;5080039;28;20028;-81
2021/09/07 05:12:03;;;;;;;33.97;23.92;;;;;;;11.44;100.00;101467.34;5080651;28;20035;-83
2021/09/07 05:14:30;;;;;;;39.15;24.73;;;;;;;11.58;100.00;101472.47;5079156;28;20032;-82
2021/09/07 05:16:55;;;;;;;37.90;24.40;;;;;;;11.56;100.00;101475.94;5079543;28;20028;-83
2021/09/07 05:19:20;;;;;;;44.45;25.63;;;;;;;11.57;100.00;101478.53;5079179;28;20405;-83
2021/09/07 05:21:45;;;;;;;48.35;27.25;;;;;;;11.54;100.00;101475.94;5079321;28;20116;-83
2021/09/07 05:24:11;;;;;;;49.10;26.60;;;;;;;11.56;100.00;101481.16;5078975;28;20030;-83
2021/09/07 05:26:36;;;;;;;58.92;27.55;;;;;;;11.53;100.00;101476.81;5079753;28;20024;-81
2021/09/07 05:29:01;;;;;;;57.30;27.05;;;;;;;11.63;100.00;101473.28;5097135;28;20024;-81
2021/09/07 05:31:26;;;;;;;89.60;29.77;;;;;;;11.58;100.00;101469.00;5096848;28;20405;-81
2021/09/07 05:33:52;;;;;;;77.30;29.05;;;;;;;11.57;100.00;101475.06;5096768;28;20024;-81
2021/09/07 05:36:17;;;;;;;89.70;27.42;;;;;;;11.63;100.00;101473.28;5097600;28;20074;-81
2021/09/07 05:38:42;;;;;;;68.10;25.50;;;;;;;11.66;100.00;101478.44;5097641;28;20106;-81
2021/09/07 05:41:08;;;;;;;55.47;25.52;;;;;;;11.68;100.00;101479.31;5100204;28;20391;-81
2021/09/07 05:43:33;;;;;;;49.40;26.73;;;;;;;11.80;100.00;101482.69;5083338;28;20060;-81
2021/09/07 05:45:58;;;;;;;50.60;26.17;;;;;;;11.92;100.00;101482.63;5084665;28;20031;-81
2021/09/07 05:48:23;;;;;;;60.70;24.50;;;;;;;11.95;100.00;101477.41;5109805;28;20045;-82
2021/09/07 05:50:49;;;;;;;35.20;24.58;;;;;;;12.06;100.00;101480.72;5109983;28;20020;-82
2021/09/07 05:53:14;;;;;;;33.03;23.02;;;;;;;12.07;100.00;101479.00;5089786;28;20472;-82
2021/09/07 05:55:39;;;;;;;29.80;22.55;;;;;;;12.19;100.00;101474.56;5107343;28;20050;-81
2021/09/07 05:58:04;;;;;;;31.98;21.83;;;;;;;12.21;100.00;101477.13;5107943;28;20023;-81
2021/09/07 06:00:31;;;;;;;29.25;21.58;;;;;;;12.31;100.00;101481.34;5108379;28;20027;-81
2021/09/07 06:02:57;;;;;;;26.92;20.02;;;;;;;12.84;100.00;101485.09;5108999;28;20194;-81
2021/09/07 06:05:23;;;;;;;23.35;18.88;;;;;;;13.01;100.00;101491.81;5089027;28;20027;-81
2021/09/07 06:07:48;;;;;;;22.70;18.80;;;;;;;13.07;100.00;101484.78;5105476;28;20072;-81
2021/09/07 06:10:14;;;;;;;26.60;18.50;;;;;;;13.78;100.00;101483.75;5085124;28;20020;-81
2021/09/07 06:12:40;;;;;;;21.80;16.65;;;;;;;14.45;100.00;101469.47;5104450;28;20020;-81
2021/09/07 06:15:07;;;;;;;23.55;17.70;;;;;;;14.54;100.00;101473.69;5103789;28;20051;-81
2021/09/07 06:17:32;;;;;;;22.10;17.08;;;;;;;15.28;100.00;101477.34;5103014;28;20031;-81
2021/09/07 06:19:57;;;;;;;21.02;15.77;;;;;;;15.84;100.00;101470.75;5103241;28;20015;-81
2021/09/07 06:22:23;;;;;;;18.60;13.25;;;;;;;16.31;100.00;101473.00;5102222;28;20099;-81
2021/09/07 06:24:49;;;;;;;19.30;13.60;;;;;;;16.00;100.00;101470.38;5102429;28;20380;-81
2021/09/07 06:27:14;;;;;;;18.10;13.38;;;;;;;15.56;100.00;101477.53;5101711;28;20024;-81
2021/09/07 06:29:40;;;;;;;20.52;14.30;;;;;;;15.39;100.00;101484.03;5100514;28;20077;-81
2021/09/07 06:32:05;;;;;;;17.35;13.38;;;;;;;14.82;100.00;101487.03;5098217;28;20520;-81
2021/09/07 06:34:31;;;;;;;18.02;13.63;;;;;;;14.49;100.00;101483.31;5079815;28;20027;-81
2021/09/07 06:36:56;;;;;;;20.88;14.23;;;;;;;14.65;100.00;101482.16;5098484;28;20032;-81
2021/09/07 06:39:22;;;;;;;19.52;12.68;;;;;;;15.02;100.00;101476.16;5097610;28;20530;-81
2021/09/07 06:41:47;;;;;;;19.10;11.43;;;;;;;15.70;100.00;101479.84;5097799;28;20102;-81
2021/09/07 06:44:13;;;;;;;19.17;12.68;;;;;;;15.88;100.00;101461.91;5079887;28;20024;-81
2021/09/07 06:46:38;;;;;;;15.93;10.85;;;;;;;16.34;100.00;101471.16;5080472;28;20383;-81
2021/09/07 06:49:03;;;;;;;17.83;10.15;;;;;;;16.46;100.00;101469.97;5081135;28;20047;-81
2021/09/07 06:51:29;;;;;;;13.43;8.82;;;;;;;16.63;100.00;101481.75;5098850;28;20028;-81
2021/09/07 06:53:54;;;;;;;15.50;8.70;;;;;;;16.52;100.00;101471.56;5098306;28;20031;-81
2021/09/07 06:56:19;;;;;;;14.18;9.15;;;;;;;16.17;100.00;101470.78;5079450;28;20031;-81
2021/09/07 06:58:45;;;;;;;14.80;9.23;;;;;;;16.51;100.00;101475.09;5097960;28;20020;-81
2021/09/07 07:01:10;;;;;;;14.02;8.65;;;;;;;16.60;100.00;101482.69;5079838;28;20361;-81
2021/09/07 07:03:35;;;;;;;14.45;8.13;;;;;;;16.99;100.00;101483.31;5079254;28;20028;-81
2021/09/07 07:06:01;;;;;;;13.40;7.75;;;;;;;17.59;100.00;101470.94;5097615;28;20020;-81
2021/09/07 07:08:26;;;;;;;13.65;6.40;;;;;;;17.85;100.00;101480.59;5097307;28;20115;-81
2021/09/07 07:10:51;;;;;;;13.77;6.70;;;;;;;18.24;100.00;101476.66;5097950;28;20077;-81
2021/09/07 07:13:17;;;;;;;11.05;5.75;;;;;;;18.30;100.00;101477.28;5097195;28;20023;-81
2021/09/07 07:15:42;;;;;;;11.95;6.32;;;;;;;18.50;100.00;101479.19;5097762;28;20464;-82
2021/09/07 07:18:07;;;;;;;11.35;6.22;;;;;;;17.80;100.00;101479.06;5098168;28;20051;-82
2021/09/07 07:20:32;;;;;;;10.90;6.60;;;;;;;18.47;100.00;101484.56;5097783;28;20083;-82
2021/09/07 07:22:58;;;;;;;19.20;6.53;;;;;;;19.46;100.00;101490.44;5079501;28;20087;-82
2021/09/07 07:25:23;;;;;;;14.68;6.28;;;;;;;19.93;100.00;101492.91;5079698;28;20027;-82
2021/09/07 07:27:49;;;;;;;12.05;6.72;;;;;;;19.54;100.00;101490.13;5097772;28;20475;-82
2021/09/07 07:30:14;;;;;;;11.07;6.32;;;;;;;19.47;100.00;101491.31;5097410;28;20020;-82
2021/09/07 07:32:41;;;;;;;13.10;6.43;;;;;;;20.04;100.00;101499.50;5079206;28;20101;-82
2021/09/07 07:35:06;;;;;;;11.63;6.05;;;;;;;20.28;99.51;101500.22;5080116;28;20430;-82
2021/09/07 07:37:32;;;;;;;11.20;5.50;;;;;;;20.50;96.60;101502.75;5079914;28;20031;-82
2021/09/07 07:39:57;;;;;;;11.30;5.97;;;;;;;20.45;95.38;101502.97;5095368;22;20041;-89
2021/09/07 07:42:22;;;;;;;12.50;5.78;;;;;;;19.95;97.40;101506.00;5059249;28;20468;-89
2021/09/07 07:44:48;;;;;;;15.13;6.55;;;;;;;19.10;100.00;101511.16;5058279;28;20392;-89
2021/09/07 07:47:16;;;;;;;12.43;5.85;;;;;;;20.07;98.23;101509.91;5058100;28;20024;-89
2021/09/07 07:49:48;;;;;;;12.13;6.15;;;;;;;19.95;100.00;101519.16;5057888;28;20059;-89
2021/09/07 07:52:13;;;;;;;10.40;5.70;;;;;;;20.47;95.45;101516.91;5059105;28;20051;-89
2021/09/07 07:54:39;;;;;;;10.45;6.05;;;;;;;20.81;91.89;101521.59;5059378;28;20465;-89
2021/09/07 07:57:04;;;;;;;16.35;6.13;;;;;;;20.57;92.21;101514.78;5058441;28;20027;-89
2021/09/07 07:59:33;;;;;;;11.95;5.93;;;;;;;19.26;96.95;101514.91;5058126;28;20058;-89
2021/09/07 08:01:58;;;;;;;10.82;5.25;;;;;;;20.09;97.85;101514.19;5059073;28;20051;-88
2021/09/07 08:04:24;;;;;;;9.95;5.50;;;;;;;19.82;93.31;101510.94;5057605;28;20070;-89
2021/09/07 08:06:52;;;;;;;10.30;5.20;;;;;;;20.60;92.91;101514.66;5076163;28;20392;-89
2021/09/07 08:09:17;;;;;;;9.98;5.60;;;;;;;21.73;82.69;101525.16;5075815;28;20084;-89
2021/09/07 08:11:42;;;;;;;11.10;5.57;;;;;;;21.93;77.64;101523.31;5076030;28;20055;-89
2021/09/07 08:14:08;;;;;;;12.48;6.97;;;;;;;21.70;78.92;101519.16;5058153;28;20025;-89
2021/09/07 08:16:39;;;;;;;12.57;7.35;;;;;;;21.97;72.59;101522.22;5058293;28;20108;-89
2021/09/07 08:19:05;;;;;;;12.43;6.78;;;;;;;20.39;75.09;101517.28;5058908;28;20055;-89
2021/09/07 08:21:30;;;;;;;11.10;6.35;;;;;;;20.58;75.42;101524.41;5058143;28;20028;-89
2021/09/07 08:24:01;;;;;;;9.93;4.38;;;;;;;21.66;68.14;101531.66;5057903;28;20559;-89
2021/09/07 08:26:32;;;;;;;9.25;4.35;;;;;;;22.08;71.01;101529.63;5058460;28;20016;-89
2021/09/07 08:29:03;;;;;;;9.63;5.10;;;;;;;21.65;76.26;101531.75;5057846;28;20169;-89
2021/09/07 08:31:52;;;;;;;8.93;4.47;;;;;;;22.38;69.69;101529.84;5058284;28;20107;-89
2021/09/07 08:34:27;;;;;;;10.15;5.40;;;;;;;21.47;65.94;101533.50;5057899;28;20025;-89
2021/09/07 08:37:03;;;;;;;8.82;4.50;;;;;;;22.73;64.00;101538.56;5058877;28;20029;-89
2021/09/07 08:39:28;;;;;;;11.05;4.80;;;;;;;22.89;61.56;101533.28;5058107;28;20028;-90
2021/09/07 08:41:54;;;;;;;8.80;4.80;;;;;;;22.64;65.54;101531.97;5058310;28;20024;-89
2021/09/07 08:44:28;;;;;;;7.20;3.85;;;;;;;23.00;64.34;101530.97;5058592;28;20043;-90
2021/09/07 08:46:57;;;;;;;9.40;4.25;;;;;;;23.34;59.12;101526.44;5058676;28;20468;-90
2021/09/07 08:49:22;;;;;;;8.48;3.90;;;;;;;23.06;60.37;101535.03;5057470;28;20020;-90
2021/09/07 08:51:48;;;;;;;8.02;3.47;;;;;;;22.53;59.48;101532.53;5057211;28;20082;-90
2021/09/07 08:54:14;;;;;;;7.88;3.53;;;;;;;23.10;58.48;101526.84;5058957;28;20020;-90
2021/09/07 08:56:43;;;;;;;8.77;3.05;;;;;;;22.42;52.03;101534.91;5057573;28;20074;-91
2021/09/07 08:59:11;;;;;;;7.45;2.72;;;;;;;21.55;54.20;101541.88;5057038;28;20024;-90
2021/09/07 09:01:38;;;;;;;6.40;3.20;;;;;;;23.06;55.50;101533.28;5058155;28;20048;-89
2021/09/07 09:04:04;;;;;;;5.63;2.53;;;;;;;23.25;51.13;101535.75;5057994;28;20024;-90
2021/09/07 09:06:29;;;;;;;5.25;2.38;;;;;;;23.43;52.10;101533.88;5056241;28;20460;-89
2021/09/07 09:09:06;;;;;;;7.13;2.67;;;;;;;23.60;52.88;101528.44;5056201;28;20027;-89
2021/09/07 09:11:54;;;;;;;7.10;2.50;;;;;;;23.44;49.81;101530.25;5056755;28;20124;-89
2021/09/07 09:14:49;;;;;;;5.82;2.75;;;;;;;22.91;50.40;101531.44;5056085;28;20028;-89
2021/09/07 09:17:17;;;;;;;5.22;1.95;;;;;;;23.63;47.13;101532.72;5042258;28;20090;-89
2021/09/07 09:19:57;;;;;;;5.45;2.03;;;;;;;23.50;45.82;101529.91;5059832;28;20055;-89
2021/09/07 09:22:59;;;;;;;7.68;2.40;;;;;;;24.83;42.27;101530.91;5059196;28;20033;-89
2021/09/07 09:25:43;;;;;;;5.00;2.08;;;;;;;23.64;43.95;101521.16;4980145;28;20518;-91
2021/09/07 09:28:21;;;;;;;5.97;2.53;;;;;;;22.09;48.61;101528.69;5053142;28;20065;-91
2021/09/07 09:30:58;;;;;;;5.18;2.67;;;;;;;22.57;50.90;101533.25;5059262;28;20029;-90
2021/09/07 09:33:26;;;;;;;5.90;2.55;;;;;;;23.51;49.71;101520.16;5060101;28;20120;-91
2021/09/07 09:36:00;;;;;;;5.78;2.42;;;;;;;24.56;44.94;101516.59;5059368;28;20484;-91
2021/09/07 09:38:32;;;;;;;7.13;2.55;;;;;;;24.93;42.54;101519.59;5060408;28;20064;-91
2021/09/07 09:41:00;;;;;;;4.75;2.28;;;;;;;24.68;44.66;101519.44;5060741;28;20074;-91
2021/09/07 09:43:30;;;;;;;6.50;2.42;;;;;;;24.54;43.15;101518.50;5059942;28;20373;-90
2021/09/07 09:45:56;;;;;;;6.97;2.47;;;;;;;24.27;44.83;101520.16;5060131;28;20021;-90
2021/09/07 09:48:31;;;;;;;5.82;2.47;;;;;;;24.83;44.47;101514.97;5059426;28;20123;-90
2021/09/07 09:50:58;;;;;;;6.00;2.67;;;;;;;24.87;45.35;101516.47;5058702;28;20024;-90
2021/09/07 09:53:26;;;;;;;6.28;2.78;;;;;;;25.28;43.61;101519.19;5059060;28;20119;-90
2021/09/07 09:55:54;;;;;;;6.95;2.90;;;;;;;25.10;44.65;101512.38;5058006;28;20076;-91
2021/09/07 09:58:21;;;;;;;6.55;2.70;;;;;;;25.54;42.77;101513.97;5058532;28;20105;-91
2021/09/07 10:00:49;;;;;;;5.57;2.53;;;;;;;24.70;45.55;101510.44;5058783;28;20021;-90
2021/09/07 10:03:15;;;;;;;7.22;3.22;;;;;;;24.76;46.12;101504.75;5059229;28;20031;-90
2021/09/07 10:05:42;;;;;;;7.28;2.80;;;;;;;22.95;47.61;101506.53;5063092;28;20048;-90
2021/09/07 10:08:11;;;;;;;6.18;3.05;;;;;;;24.54;45.89;101505.25;5059234;28;20039;-90
2021/09/07 10:10:41;;;;;;;6.78;2.90;;;;;;;23.57;46.87;101494.19;5076441;28;20070;-90
2021/09/07 10:13:10;;;;;;;7.03;3.40;;;;;;;23.62;46.81;101501.88;5059193;28;20411;-90
2021/09/07 10:15:46;;;;;;;6.55;3.13;;;;;;;22.97;47.42;101502.03;5058203;28;20020;-90
2021/09/07 10:18:50;;;;;;;5.50;2.50;;;;;;;23.23;47.91;101497.91;5058394;28;20031;-90
2021/09/07 10:26:45;;;;;;;5.93;2.90;;;;;;;22.83;49.12;101502.72;5075149;28;20021;-90
2021/09/07 10:29:20;;;;;;;6.38;3.13;;;;;;;22.70;50.69;101501.69;5058275;28;20046;-90
2021/09/07 10:31:47;;;;;;;11.25;3.50;;;;;;;21.83;52.88;101501.81;5057912;28;20028;-89
2021/09/07 10:34:17;;;;;;;6.22;3.20;;;;;;;22.27;53.93;101501.34;5057776;28;20035;-89
2021/09/07 10:37:03;;;;;;;7.28;3.25;;;;;;;21.66;55.20;101502.63;5057862;28;20035;-89
2021/09/07 10:39:35;;;;;;;6.68;3.03;;;;;;;23.26;50.38;101502.19;5057644;28;20525;-89
2021/09/07 10:42:03;;;;;;;7.85;2.67;;;;;;;23.94;47.41;101491.22;5057946;28;20028;-89
2021/09/07 10:44:33;;;;;;;6.20;2.65;;;;;;;23.73;49.69;101494.16;5057739;28;20017;-90
2021/09/07 10:47:10;;;;;;;7.65;3.20;;;;;;;23.76;49.73;101485.19;5057861;28;20027;-90
2021/09/07 10:49:56;;;;;;;7.97;3.30;;;;;;;23.64;50.22;101484.94;5057571;28;20077;-90
2021/09/07 10:52:25;;;;;;;5.20;2.70;;;;;;;23.97;49.60;101483.09;5057681;28;20462;-90
2021/09/07 10:54:53;;;;;;;6.53;2.67;;;;;;;23.89;49.39;101492.34;5057676;28;20020;-90
2021/09/07 10:57:34;;;;;;;7.70;2.85;;;;;;;22.94;49.33;101483.66;5058237;28;20352;-89
2021/09/07 11:00:03;;;;;;;7.70;3.00;;;;;;;23.80;49.79;101489.38;5057199;28;20052;-89
2021/09/07 11:02:34;;;;;;;6.75;2.90;;;;;;;24.20;49.73;101493.16;5075242;28;20032;-89
2021/09/07 11:05:01;;;;;;;7.95;2.88;;;;;;;23.75;49.42;101489.66;5057349;28;20521;-89
2021/09/07 11:07:32;;;;;;;6.93;2.95;;;;;;;23.41;50.16;101494.22;5057431;28;20497;-89
2021/09/07 11:09:58;;;;;;;5.72;2.70;;;;;;;23.38;50.06;101490.91;5057035;28;20071;-90
2021/09/07 11:12:30;;;;;;;6.20;2.90;;;;;;;23.64;50.93;101482.28;5057578;28;20056;-89
2021/09/07 11:15:10;;;;;;;6.88;3.00;;;;;;;23.44;50.99;101482.59;5057061;28;20070;-90